createdAt,value
2022-08-29T00:00:17.828Z,17.40
2022-08-29T00:02:49.977Z,18.13
2022-08-29T00:05:19.016Z,16.73
2022-08-29T00:07:47.262Z,17.10
2022-08-29T00:10:16.182Z,17.10
2022-08-29T00:12:44.373Z,17.47
2022-08-29T00:15:14.115Z,17.97
2022-08-29T00:17:43.067Z,18.33
2022-08-29T00:20:16.431Z,17.60
2022-08-29T00:22:44.574Z,18.43
2022-08-29T00:25:14.876Z,16.93
2022-08-29T00:27:44.678Z,19.50
2022-08-29T00:30:18.095Z,18.50
2022-08-29T00:32:46.310Z,19.33
2022-08-29T00:35:17.733Z,18.67
2022-08-29T00:37:45.896Z,19.13
2022-08-29T00:40:16.650Z,19.30
2022-08-29T00:42:45.337Z,20.23
2022-08-29T00:45:14.712Z,18.60
2022-08-29T00:47:48.791Z,17.77
2022-08-29T00:50:25.085Z,20.30
2022-08-29T00:52:55.210Z,16.90
2022-08-29T00:55:26.584Z,18.87
2022-08-29T00:57:58.883Z,19.43
2022-08-29T01:00:28.092Z,20.83
2022-08-29T01:02:56.916Z,19.83
2022-08-29T01:05:27.446Z,19.90
2022-08-29T01:07:55.821Z,20.07
2022-08-29T01:10:41.578Z,19.40
2022-08-29T01:13:12.553Z,20.77
2022-08-29T01:15:44.022Z,18.97
2022-08-29T01:18:15.491Z,18.80
2022-08-29T01:20:55.623Z,19.80
2022-08-29T01:23:32.543Z,20.87
2022-08-29T01:26:03.935Z,21.23
2022-08-29T01:28:35.065Z,18.50
2022-08-29T01:31:07.586Z,19.00
2022-08-29T01:33:40.822Z,19.30
2022-08-29T01:36:10.921Z,21.80
2022-08-29T01:38:39.417Z,19.40
2022-08-29T01:41:10.733Z,20.53
2022-08-29T01:43:44.168Z,23.77
2022-08-29T01:46:15.024Z,20.63
2022-08-29T01:48:45.984Z,18.97
2022-08-29T01:51:15.999Z,21.20
2022-08-29T01:53:44.339Z,20.80
2022-08-29T01:56:17.139Z,22.93
2022-08-29T01:58:47.031Z,21.70
2022-08-29T02:01:18.375Z,20.30
2022-08-29T02:03:49.798Z,21.93
2022-08-29T02:06:18.030Z,20.87
2022-08-29T02:08:47.218Z,22.20
2022-08-29T02:11:17.943Z,19.57
2022-08-29T02:13:48.988Z,21.20
2022-08-29T02:16:17.376Z,20.03
2022-08-29T02:18:46.192Z,19.20
2022-08-29T02:21:17.087Z,19.97
2022-08-29T02:23:46.458Z,19.57
2022-08-29T02:26:15.963Z,20.83
2022-08-29T02:28:44.239Z,19.80
2022-08-29T02:31:12.518Z,20.17
2022-08-29T02:33:40.985Z,22.57
2022-08-29T02:36:09.759Z,21.33
2022-08-29T02:38:39.362Z,19.67
2022-08-29T02:41:11.263Z,19.60
2022-08-29T02:43:44.723Z,20.67
2022-08-29T02:46:17.951Z,20.00
2022-08-29T02:48:49.264Z,22.77
2022-08-29T02:51:31.224Z,18.90
2022-08-29T02:54:00.114Z,19.10
2022-08-29T02:56:28.840Z,20.27
2022-08-29T02:58:58.345Z,17.83
2022-08-29T03:01:27.231Z,20.07
2022-08-29T03:03:55.503Z,19.27
2022-08-29T03:06:24.357Z,19.47
2022-08-29T03:08:54.201Z,19.67
2022-08-29T03:11:23.363Z,19.10
2022-08-29T03:13:51.554Z,17.90
2022-08-29T03:16:25.088Z,17.43
2022-08-29T03:18:53.271Z,19.30
2022-08-29T03:21:24.959Z,18.53
2022-08-29T03:23:55.359Z,19.27
2022-08-29T03:26:24.284Z,18.63
2022-08-29T03:28:52.872Z,21.43
2022-08-29T03:31:21.111Z,19.70
2022-08-29T03:33:50.917Z,28.90
2022-08-29T03:36:19.268Z,18.57
2022-08-29T03:38:48.248Z,21.30
2022-08-29T03:41:22.138Z,21.93
2022-08-29T03:43:50.432Z,19.73
2022-08-29T03:46:18.754Z,19.53
2022-08-29T03:48:46.883Z,18.67
2022-08-29T03:51:16.616Z,21.70
2022-08-29T03:53:45.945Z,19.23
2022-08-29T03:56:18.109Z,20.73
2022-08-29T03:58:51.909Z,20.73
2022-08-29T04:01:22.476Z,20.27
2022-08-29T04:03:51.446Z,22.27
2022-08-29T04:06:22.430Z,20.20
2022-08-29T04:08:51.665Z,22.67
2022-08-29T04:11:20.779Z,19.90
2022-08-29T04:13:49.766Z,20.87
2022-08-29T04:16:21.212Z,20.73
2022-08-29T04:18:49.632Z,21.80
2022-08-29T04:21:18.544Z,21.43
2022-08-29T04:23:48.258Z,20.50
2022-08-29T04:26:35.977Z,21.70
2022-08-29T04:29:05.627Z,19.73
2022-08-29T04:31:33.776Z,20.70
2022-08-29T04:34:01.954Z,19.77
2022-08-29T04:36:30.143Z,19.20
2022-08-29T04:38:59.633Z,19.10
2022-08-29T04:41:27.963Z,20.30
2022-08-29T04:43:56.166Z,23.10
2022-08-29T04:46:24.928Z,19.00
2022-08-29T04:48:53.659Z,19.67
2022-08-29T04:51:22.154Z,25.03
2022-08-29T04:53:51.451Z,22.60
2022-08-29T04:56:22.698Z,20.83
2022-08-29T04:58:52.179Z,20.53
2022-08-29T05:01:27.109Z,21.80
2022-08-29T05:03:58.029Z,22.57
2022-08-29T05:06:26.379Z,21.70
2022-08-29T05:08:59.323Z,22.53
2022-08-29T05:11:31.125Z,21.67
2022-08-29T05:14:00.136Z,21.93
2022-08-29T05:16:29.989Z,23.10
2022-08-29T05:19:00.112Z,23.83
2022-08-29T05:21:34.940Z,22.33
2022-08-29T05:24:05.580Z,22.60
2022-08-29T05:26:38.954Z,20.30
2022-08-29T05:29:08.964Z,21.33
2022-08-29T05:31:38.236Z,19.10
2022-08-29T05:34:21.899Z,23.43
2022-08-29T05:36:54.663Z,21.53
2022-08-29T05:39:22.832Z,18.20
2022-08-29T05:41:55.701Z,17.90
2022-08-29T05:44:23.834Z,17.87
2022-08-29T05:46:52.303Z,17.23
2022-08-29T05:49:20.995Z,17.00
2022-08-29T05:51:49.670Z,17.00
2022-08-29T05:54:17.747Z,17.60
2022-08-29T05:56:45.892Z,17.10
2022-08-29T05:59:17.035Z,18.30
2022-08-29T06:01:46.239Z,18.67
2022-08-29T06:04:14.641Z,19.60
2022-08-29T06:06:43.119Z,19.50
2022-08-29T06:09:12.879Z,18.30
2022-08-29T06:11:42.024Z,18.40
2022-08-29T06:14:10.106Z,21.10
2022-08-29T06:16:39.685Z,18.40
2022-08-29T06:19:07.938Z,21.63
2022-08-29T06:21:36.063Z,18.03
2022-08-29T06:24:04.736Z,17.67
2022-08-29T06:26:32.906Z,19.63
2022-08-29T06:29:01.102Z,23.23
2022-08-29T06:31:29.660Z,20.40
2022-08-29T06:34:01.587Z,19.07
2022-08-29T06:36:31.062Z,23.00
2022-08-29T06:39:00.691Z,25.50
2022-08-29T06:41:29.934Z,25.40
2022-08-29T06:44:01.290Z,21.00
2022-08-29T06:46:31.248Z,21.33
2022-08-29T06:49:01.965Z,25.97
2022-08-29T06:51:33.203Z,19.70
2022-08-29T06:54:01.674Z,21.23
2022-08-29T06:56:31.056Z,27.97
2022-08-29T06:58:59.537Z,25.33
2022-08-29T07:01:28.187Z,24.30
2022-08-29T07:03:57.599Z,19.10
2022-08-29T07:06:29.653Z,19.13
2022-08-29T07:08:58.347Z,19.30
2022-08-29T07:11:27.980Z,18.03
2022-08-29T07:13:58.695Z,17.73
2022-08-29T07:16:27.408Z,17.63
2022-08-29T07:18:56.235Z,17.80
2022-08-29T07:21:27.315Z,16.97
2022-08-29T07:23:56.879Z,20.53
2022-08-29T07:26:28.706Z,16.90
2022-08-29T07:28:59.782Z,19.03
2022-08-29T07:31:32.264Z,16.80
2022-08-29T07:34:02.838Z,18.70
2022-08-29T07:36:34.546Z,17.20
2022-08-29T07:39:06.219Z,21.67
2022-08-29T07:41:34.431Z,19.87
2022-08-29T07:44:02.607Z,17.73
2022-08-29T07:46:31.587Z,22.27
2022-08-29T07:49:00.963Z,16.60
2022-08-29T07:51:30.582Z,17.23
2022-08-29T07:54:00.144Z,16.50
2022-08-29T07:56:37.035Z,16.10
2022-08-29T07:59:05.959Z,16.80
2022-08-29T08:01:35.640Z,17.33
2022-08-29T08:04:04.237Z,15.73
2022-08-29T08:06:32.515Z,14.87
2022-08-29T08:09:04.492Z,15.43
2022-08-29T08:11:32.864Z,15.17
2022-08-29T08:14:01.991Z,15.27
2022-08-29T08:16:30.760Z,15.80
2022-08-29T08:18:58.990Z,16.37
2022-08-29T08:21:28.221Z,16.73
2022-08-29T08:23:56.542Z,20.07
2022-08-29T08:26:26.864Z,15.27
2022-08-29T08:28:55.312Z,14.07
2022-08-29T08:31:24.095Z,14.13
2022-08-29T08:33:52.687Z,17.70
2022-08-29T08:36:23.187Z,28.50
2022-08-29T08:38:52.828Z,15.33
2022-08-29T08:41:40.402Z,16.73
2022-08-29T08:44:14.443Z,14.60
2022-08-29T08:46:44.899Z,15.10
2022-08-29T08:49:19.146Z,15.37
2022-08-29T08:51:51.260Z,15.10
2022-08-29T08:54:25.326Z,14.70
2022-08-29T08:57:02.383Z,14.67
2022-08-29T08:59:39.493Z,15.67
2022-08-29T09:02:35.446Z,16.37
2022-08-29T09:05:19.623Z,15.83
2022-08-29T09:07:57.650Z,17.47
2022-08-29T09:10:34.043Z,17.00
2022-08-29T09:13:11.455Z,14.97
2022-08-29T09:15:43.419Z,16.27
2022-08-29T09:18:21.818Z,16.60
2022-08-29T09:20:52.332Z,14.77
2022-08-29T09:23:25.796Z,16.07
2022-08-29T09:25:54.123Z,16.90
2022-08-29T09:28:24.461Z,16.50
2022-08-29T09:31:19.418Z,16.20
2022-08-29T09:33:50.286Z,16.43
2022-08-29T09:36:43.222Z,16.20
2022-08-29T09:39:23.030Z,16.43
2022-08-29T09:41:53.723Z,15.43
2022-08-29T09:44:27.104Z,16.27
2022-08-29T09:47:10.759Z,17.57
2022-08-29T09:49:40.361Z,16.77
2022-08-29T09:52:13.476Z,17.33
2022-08-29T09:54:42.153Z,15.37
2022-08-29T09:57:22.554Z,19.93
2022-08-29T10:00:11.428Z,19.13
2022-08-29T10:02:47.274Z,17.33
2022-08-29T10:05:34.893Z,18.20
2022-08-29T10:08:05.234Z,17.80
2022-08-29T10:10:36.252Z,19.90
2022-08-29T10:13:11.844Z,19.00
2022-08-29T10:15:50.796Z,19.53
2022-08-29T10:18:29.544Z,18.57
2022-08-29T10:21:16.821Z,17.43
2022-08-29T10:24:03.576Z,18.47
2022-08-29T10:26:43.209Z,18.80
2022-08-29T10:29:22.544Z,19.27
2022-08-29T10:32:02.594Z,17.53
2022-08-29T10:34:44.916Z,17.90
2022-08-29T10:37:20.016Z,18.00
2022-08-29T10:39:56.727Z,18.20
2022-08-29T10:42:27.292Z,17.83
2022-08-29T10:45:07.176Z,17.17
2022-08-29T10:47:41.828Z,16.20
2022-08-29T10:50:42.998Z,22.20
2022-08-29T10:53:20.346Z,17.60
2022-08-29T10:56:01.114Z,17.80
2022-08-29T10:58:40.719Z,19.70
2022-08-29T11:01:14.262Z,17.83
2022-08-29T11:03:52.945Z,16.93
2022-08-29T11:06:26.221Z,18.80
2022-08-29T11:08:59.571Z,15.50
2022-08-29T11:11:31.107Z,16.63
2022-08-29T11:14:05.795Z,19.30
2022-08-29T11:16:39.739Z,16.47
2022-08-29T11:19:17.862Z,18.47
2022-08-29T11:21:52.838Z,17.57
2022-08-29T11:24:31.717Z,17.60
2022-08-29T11:27:10.812Z,14.77
2022-08-29T11:29:47.970Z,21.50
2022-08-29T11:32:24.536Z,18.23
2022-08-29T11:35:07.169Z,17.70
2022-08-29T11:38:14.432Z,20.30
2022-08-29T11:41:27.998Z,20.20
2022-08-29T11:44:07.043Z,19.37
2022-08-29T11:46:40.786Z,15.07
2022-08-29T11:49:33.967Z,20.37
2022-08-29T11:52:18.961Z,15.47
2022-08-29T11:55:23.937Z,15.13
2022-08-29T11:58:03.811Z,14.43
2022-08-29T12:00:42.779Z,10.53
2022-08-29T12:03:56.321Z,12.37
2022-08-29T12:06:53.382Z,11.37
2022-08-29T12:09:47.394Z,12.10
2022-08-29T12:12:45.320Z,11.70
2022-08-29T12:15:52.904Z,13.30
2022-08-29T12:18:44.300Z,12.80
2022-08-29T12:21:42.111Z,12.20
2022-08-29T12:24:30.714Z,15.00
2022-08-29T12:27:00.735Z,13.63
2022-08-29T12:29:33.327Z,17.57
2022-08-29T12:32:35.074Z,12.67
2022-08-29T12:35:22.603Z,14.23
2022-08-29T12:38:07.396Z,14.40
2022-08-29T12:40:54.827Z,15.47
2022-08-29T12:43:35.203Z,14.87
2022-08-29T12:46:09.597Z,15.40
2022-08-29T12:48:42.795Z,16.10
2022-08-29T12:51:10.986Z,14.20
2022-08-29T12:53:39.135Z,13.87
2022-08-29T12:56:18.267Z,17.93
2022-08-29T12:58:55.888Z,18.43
2022-08-29T13:01:29.882Z,16.53
2022-08-29T13:04:01.102Z,16.57
2022-08-29T13:06:29.403Z,14.40
2022-08-29T13:08:57.950Z,15.37
2022-08-29T13:11:28.665Z,15.63
2022-08-29T13:14:13.256Z,14.77
2022-08-29T13:16:42.383Z,14.80
2022-08-29T13:19:20.135Z,13.23
2022-08-29T13:21:48.644Z,14.37
2022-08-29T13:24:20.459Z,13.37
2022-08-29T13:27:03.276Z,13.93
2022-08-29T13:29:39.155Z,12.53
2022-08-29T13:32:20.311Z,11.33
2022-08-29T13:35:06.459Z,14.43
2022-08-29T13:37:37.317Z,12.90
2022-08-29T13:40:31.641Z,13.57
2022-08-29T13:43:02.210Z,13.83
2022-08-29T13:45:31.783Z,13.00
2022-08-29T13:48:18.453Z,13.00
2022-08-29T13:53:16.027Z,12.80
2022-08-29T13:55:44.746Z,12.93
2022-08-29T13:58:14.950Z,15.00
2022-08-29T14:00:44.887Z,14.80
2022-08-29T14:03:19.665Z,15.70
2022-08-29T14:05:48.088Z,18.93
2022-08-29T14:08:16.303Z,13.50
2022-08-29T14:10:44.914Z,14.73
2022-08-29T14:13:13.358Z,13.57
2022-08-29T14:15:41.760Z,15.00
2022-08-29T14:18:11.871Z,15.50
2022-08-29T14:20:40.238Z,14.67
2022-08-29T14:23:08.349Z,15.03
2022-08-29T14:25:36.510Z,15.57
2022-08-29T14:28:05.099Z,16.30
2022-08-29T14:30:33.495Z,17.20
2022-08-29T14:33:01.725Z,15.63
2022-08-29T14:35:32.310Z,17.17
2022-08-29T14:38:03.804Z,17.43
2022-08-29T14:40:34.173Z,18.70
2022-08-29T14:43:03.484Z,17.73
2022-08-29T14:45:32.951Z,19.87
2022-08-29T14:48:01.158Z,20.57
2022-08-29T14:50:29.270Z,22.10
2022-08-29T14:52:58.794Z,17.90
2022-08-29T14:55:27.226Z,18.47
2022-08-29T14:57:55.348Z,18.57
2022-08-29T15:00:26.810Z,16.63
2022-08-29T15:02:55.011Z,17.73
2022-08-29T15:05:23.782Z,18.80
2022-08-29T15:07:52.188Z,18.00
2022-08-29T15:10:25.359Z,16.57
2022-08-29T15:12:53.919Z,19.13
2022-08-29T15:15:29.170Z,17.63
2022-08-29T15:17:58.016Z,17.13
2022-08-29T15:20:46.710Z,17.30
2022-08-29T15:23:15.030Z,16.83
2022-08-29T15:25:51.885Z,19.33
2022-08-29T15:28:20.703Z,20.40
2022-08-29T15:30:48.954Z,22.70
2022-08-29T15:33:17.124Z,23.07
2022-08-29T15:35:45.265Z,21.60
2022-08-29T15:38:13.385Z,22.57
2022-08-29T15:40:42.302Z,24.97
2022-08-29T15:43:12.172Z,23.73
2022-08-29T15:45:40.802Z,24.80
2022-08-29T15:48:11.692Z,26.67
2022-08-29T15:50:40.048Z,26.10
2022-08-29T15:53:08.331Z,26.60
2022-08-29T15:55:37.596Z,27.13
2022-08-29T15:58:07.164Z,27.03
2022-08-29T16:00:37.013Z,27.50
2022-08-29T16:03:07.134Z,27.97
2022-08-29T16:05:38.277Z,26.27
2022-08-29T16:08:06.855Z,25.33
2022-08-29T16:10:38.715Z,25.73
2022-08-29T16:13:07.262Z,25.90
2022-08-29T16:15:37.087Z,26.93
2022-08-29T16:18:05.995Z,25.87
2022-08-29T16:20:35.368Z,27.20
2022-08-29T16:23:04.792Z,27.20
2022-08-29T16:25:33.558Z,36.13
2022-08-29T16:28:02.254Z,40.10
2022-08-29T16:30:34.564Z,35.73
2022-08-29T16:33:04.146Z,32.50
2022-08-29T16:35:32.432Z,32.00
2022-08-29T16:38:02.501Z,30.23
2022-08-29T16:40:32.265Z,30.67
2022-08-29T16:43:01.622Z,30.30
2022-08-29T16:45:29.831Z,28.00
2022-08-29T16:47:58.022Z,30.00
2022-08-29T16:50:28.628Z,27.73
2022-08-29T16:52:56.802Z,30.37
2022-08-29T16:55:26.263Z,27.73
2022-08-29T16:58:11.870Z,27.80
2022-08-29T17:00:41.276Z,28.77
2022-08-29T17:03:09.687Z,27.83
2022-08-29T17:05:39.214Z,27.63
2022-08-29T17:08:06.170Z,30.37
2022-08-29T17:10:33.167Z,31.17
2022-08-29T17:13:00.171Z,26.00
2022-08-29T17:15:27.187Z,30.37
2022-08-29T17:17:55.293Z,28.77
2022-08-29T17:20:24.437Z,29.73
2022-08-29T17:22:54.429Z,29.60
2022-08-29T17:25:23.077Z,31.13
2022-08-29T17:28:14.307Z,30.23
2022-08-29T17:30:40.433Z,29.57
2022-08-29T17:33:10.720Z,32.30
2022-08-29T17:35:39.725Z,28.97
2022-08-29T17:38:09.692Z,32.70
2022-08-29T17:40:39.961Z,29.87
2022-08-29T17:43:10.105Z,30.50
2022-08-29T17:45:39.421Z,38.10
2022-08-29T17:48:07.654Z,30.20
2022-08-29T17:50:36.321Z,30.63
2022-08-29T17:53:05.130Z,30.53
2022-08-29T17:55:34.625Z,32.03
2022-08-29T17:58:02.812Z,31.00
2022-08-29T18:00:31.522Z,31.47
2022-08-29T18:02:59.777Z,28.53
2022-08-29T18:05:28.072Z,30.57
2022-08-29T18:07:56.947Z,31.80
2022-08-29T18:10:25.807Z,32.33
2022-08-29T18:12:55.272Z,31.53
2022-08-29T18:15:23.582Z,31.50
2022-08-29T18:17:52.034Z,29.77
2022-08-29T18:20:21.678Z,30.63
2022-08-29T18:22:50.526Z,32.20
2022-08-29T18:25:22.379Z,30.60
2022-08-29T18:27:51.418Z,30.23
2022-08-29T18:30:21.141Z,30.77
2022-08-29T18:32:49.422Z,29.03
2022-08-29T18:35:17.578Z,30.67
2022-08-29T18:37:45.698Z,31.00
2022-08-29T18:40:13.890Z,30.27
2022-08-29T18:42:42.062Z,29.67
2022-08-29T18:45:11.184Z,32.23
2022-08-29T18:47:40.670Z,30.53
2022-08-29T18:50:27.135Z,28.20
2022-08-29T18:52:55.708Z,30.97
2022-08-29T18:55:24.170Z,31.73
2022-08-29T18:57:53.417Z,30.83
2022-08-29T19:00:22.307Z,28.43
2022-08-29T19:02:51.991Z,34.50
2022-08-29T19:05:24.530Z,28.97
2022-08-29T19:07:53.125Z,28.33
2022-08-29T19:10:22.488Z,27.33
2022-08-29T19:12:50.975Z,29.10
2022-08-29T19:15:19.477Z,29.60
2022-08-29T19:17:48.009Z,30.83
2022-08-29T19:20:37.826Z,27.87
2022-08-29T19:23:07.045Z,27.87
2022-08-29T19:25:35.767Z,29.93
2022-08-29T19:28:05.878Z,27.27
2022-08-29T19:30:34.648Z,28.00
2022-08-29T19:33:02.797Z,26.67
2022-08-29T19:35:32.366Z,26.10
2022-08-29T19:38:00.944Z,26.23
2022-08-29T19:40:32.615Z,24.80
2022-08-29T19:43:04.296Z,24.90
2022-08-29T19:45:44.225Z,25.00
2022-08-29T19:48:15.410Z,23.77
2022-08-29T19:50:47.389Z,23.63
2022-08-29T19:53:24.697Z,26.33
2022-08-29T19:55:56.203Z,26.80
2022-08-29T19:58:30.970Z,23.70
2022-08-29T20:01:00.167Z,24.97
2022-08-29T20:03:28.898Z,25.07
2022-08-29T20:05:59.615Z,24.27
2022-08-29T20:08:29.266Z,26.97
2022-08-29T20:10:59.663Z,24.47
2022-08-29T20:13:31.579Z,24.63
2022-08-29T20:16:02.396Z,21.90
2022-08-29T20:18:30.610Z,23.70
2022-08-29T20:21:00.217Z,23.33
2022-08-29T20:23:30.188Z,25.13
2022-08-29T20:25:59.954Z,24.40
2022-08-29T20:28:28.338Z,26.67
2022-08-29T20:30:57.344Z,23.57
2022-08-29T20:33:26.639Z,24.90
2022-08-29T20:36:14.471Z,24.77
2022-08-29T20:38:44.249Z,24.73
2022-08-29T20:41:12.383Z,28.43
2022-08-29T20:43:40.892Z,28.30
2022-08-29T20:46:09.365Z,29.00
2022-08-29T20:48:38.458Z,27.13
2022-08-29T20:51:09.738Z,28.27
2022-08-29T20:53:39.331Z,26.50
2022-08-29T20:56:09.545Z,24.87
2022-08-29T20:58:37.670Z,25.53
2022-08-29T21:01:06.100Z,24.73
2022-08-29T21:03:52.753Z,24.50
2022-08-29T21:06:21.829Z,24.83
2022-08-29T21:08:50.267Z,24.10
2022-08-29T21:11:20.059Z,24.53
2022-08-29T21:13:52.525Z,25.27
2022-08-29T21:16:21.844Z,24.83
2022-08-29T21:18:52.311Z,24.67
2022-08-29T21:21:24.719Z,25.33
2022-08-29T21:23:54.142Z,24.93
2022-08-29T21:26:23.576Z,26.63
2022-08-29T21:28:51.652Z,27.53
2022-08-29T21:31:23.380Z,25.40
2022-08-29T21:33:51.647Z,25.63
2022-08-29T21:36:21.325Z,26.50
2022-08-29T21:38:54.145Z,25.20
2022-08-29T21:41:24.667Z,23.93
2022-08-29T21:43:53.008Z,25.33
2022-08-29T21:46:22.994Z,24.43
2022-08-29T21:48:56.528Z,24.97
2022-08-29T21:51:25.650Z,24.90
2022-08-29T21:53:55.694Z,24.80
2022-08-29T21:56:26.296Z,24.07
2022-08-29T21:58:55.793Z,23.53
2022-08-29T22:01:27.633Z,25.33
2022-08-29T22:03:56.121Z,23.87
2022-08-29T22:06:24.619Z,25.53
2022-08-29T22:08:57.608Z,24.37
2022-08-29T22:11:37.511Z,24.37
2022-08-29T22:14:07.342Z,24.20
2022-08-29T22:16:35.670Z,25.10
2022-08-29T22:19:06.877Z,25.87
2022-08-29T22:21:37.249Z,23.03
2022-08-29T22:24:06.689Z,22.27
2022-08-29T22:26:38.019Z,20.20
2022-08-29T22:29:08.277Z,20.07
2022-08-29T22:31:42.384Z,21.03
2022-08-29T22:34:11.168Z,19.83
2022-08-29T22:36:39.361Z,20.30
2022-08-29T22:39:08.157Z,19.90
2022-08-29T22:41:38.152Z,19.13
2022-08-29T22:46:56.054Z,20.20
2022-08-29T22:49:27.656Z,19.63
2022-08-29T22:52:01.413Z,19.10
2022-08-29T22:54:38.635Z,18.90
2022-08-29T22:57:10.267Z,17.53
2022-08-29T22:59:39.260Z,16.40
2022-08-29T23:02:09.112Z,19.10
2022-08-29T23:04:37.938Z,18.17
2022-08-29T23:07:07.423Z,18.03
2022-08-29T23:09:36.549Z,18.83
2022-08-29T23:12:06.287Z,18.97
2022-08-29T23:14:37.319Z,17.90
2022-08-29T23:17:06.667Z,18.10
2022-08-29T23:19:35.516Z,19.50
2022-08-29T23:22:04.386Z,19.70
2022-08-29T23:24:33.899Z,18.67
2022-08-29T23:27:02.003Z,17.87
2022-08-29T23:29:32.699Z,18.60
2022-08-29T23:32:02.480Z,18.47
2022-08-29T23:34:32.736Z,20.30
2022-08-29T23:37:01.131Z,22.53
2022-08-29T23:39:29.260Z,19.10
2022-08-29T23:41:57.346Z,19.73
2022-08-29T23:44:25.468Z,20.00
2022-08-29T23:46:56.690Z,20.10
2022-08-29T23:49:26.409Z,22.57
2022-08-29T23:51:54.472Z,20.87
2022-08-29T23:54:22.575Z,21.37
2022-08-29T23:56:50.767Z,21.83
2022-08-29T23:59:32.720Z,20.43
